Time;durP1;ratioP1;P1;durP2;ratioP2;P2;SDS_P1;SDS_P2;PMS_P1;PMS_P2;Temp;Humidity;BMP_temperature;BMP_pressure;BME280_temperature;BME280_humidity;BME280_pressure;Samples;Min_cycle;Max_cycle;Signal;HPM_P1;HPM_P2
2023/04/26 00:02:14;;;;;;;11.63;3.08;;;;;;;;;;4843252;29;20050;-87
2023/04/26 00:04:40;;;;;;;5.50;2.03;;;;;;;;;;4858347;29;20054;-87
2023/04/26 00:07:07;;;;;;;6.05;1.88;;;;;;;;;;4858009;29;20049;-87
2023/04/26 00:09:33;;;;;;;5.45;2.33;;;;;;;;;;4827864;29;20530;-87
2023/04/26 00:11:59;;;;;;;8.68;2.22;;;;;;;;;;4858590;29;20049;-87
2023/04/26 00:14:26;;;;;;;4.25;2.20;;;;;;;;;;4861725;29;20072;-87
2023/04/26 00:16:52;;;;;;;4.03;2.00;;;;;;;;;;4831189;29;20067;-87
2023/04/26 00:19:18;;;;;;;4.00;1.92;;;;;;;;;;4846349;29;20057;-88
2023/04/26 00:21:44;;;;;;;5.57;2.80;;;;;;;;;;4861653;29;20452;-86
2023/04/26 00:24:10;;;;;;;4.85;2.75;;;;;;;;;;4846160;29;20053;-87
2023/04/26 00:26:36;;;;;;;3.55;2.53;;;;;;;;;;4830794;29;20045;-87
2023/04/26 00:29:03;;;;;;;9.05;2.10;;;;;;;;;;4845948;29;20059;-87
2023/04/26 00:44:02;;;;;;;5.68;2.60;;;;;;;;;;4848130;29;19919;-86
2023/04/26 00:46:29;;;;;;;6.45;2.33;;;;;;;;;;4846239;29;20110;-87
2023/04/26 00:48:55;;;;;;;6.30;2.92;;;;;;;;;;4845675;29;20049;-86
2023/04/26 00:51:21;;;;;;;4.55;2.22;;;;;;;;;;4830491;29;20045;-87
2023/04/26 00:53:48;;;;;;;3.58;2.42;;;;;;;;;;4860812;29;20045;-86
2023/04/26 00:56:16;;;;;;;7.78;2.75;;;;;;;;;;4845415;29;20057;-86
2023/04/26 00:58:42;;;;;;;9.55;2.78;;;;;;;;;;4860861;29;20053;-87
2023/04/26 01:01:08;;;;;;;6.55;2.58;;;;;;;;;;4830499;29;20414;-87
2023/04/26 01:03:35;;;;;;;8.32;2.40;;;;;;;;;;4845464;29;20045;-87
2023/04/26 01:06:01;;;;;;;6.05;2.50;;;;;;;;;;4845332;29;20560;-87
2023/04/26 01:08:27;;;;;;;5.70;2.42;;;;;;;;;;4845926;29;20421;-86
2023/04/26 01:10:54;;;;;;;8.40;2.85;;;;;;;;;;4845493;29;20049;-87
2023/04/26 01:13:20;;;;;;;7.53;2.63;;;;;;;;;;4845564;29;20053;-87
2023/04/26 01:15:47;;;;;;;3.55;2.22;;;;;;;;;;4845130;29;20088;-87
2023/04/26 01:18:13;;;;;;;5.65;2.55;;;;;;;;;;4830098;29;20399;-87
2023/04/26 01:20:40;;;;;;;11.02;3.20;;;;;;;;;;4830073;29;20136;-87
2023/04/26 01:23:07;;;;;;;3.90;2.35;;;;;;;;;;4845076;29;20049;-87
2023/04/26 01:25:33;;;;;;;5.70;2.47;;;;;;;;;;4845437;29;20054;-87
2023/04/26 01:27:59;;;;;;;11.57;3.33;;;;;;;;;;4861059;29;20456;-87
2023/04/26 01:30:26;;;;;;;7.88;2.42;;;;;;;;;;4860490;29;20605;-87
2023/04/26 01:32:52;;;;;;;4.25;2.47;;;;;;;;;;4860197;29;20109;-87
2023/04/26 01:35:18;;;;;;;7.45;2.72;;;;;;;;;;4845063;29;20050;-87
2023/04/26 01:37:44;;;;;;;2.70;2.50;;;;;;;;;;4860253;29;20548;-88
2023/04/26 01:40:11;;;;;;;10.57;3.25;;;;;;;;;;4844842;29;20509;-87
2023/04/26 01:42:37;;;;;;;6.20;2.22;;;;;;;;;;4829949;29;20046;-87
2023/04/26 01:45:03;;;;;;;6.55;3.00;;;;;;;;;;4844727;29;20570;-87
2023/04/26 01:47:29;;;;;;;9.88;2.58;;;;;;;;;;4860404;29;20068;-87
2023/04/26 01:49:55;;;;;;;10.30;2.85;;;;;;;;;;4844772;29;20408;-87
2023/04/26 01:52:22;;;;;;;8.77;2.90;;;;;;;;;;4861079;29;20081;-87
2023/04/26 01:54:48;;;;;;;4.35;2.20;;;;;;;;;;4860029;29;20384;-87
2023/04/26 01:57:14;;;;;;;6.40;3.08;;;;;;;;;;4829265;29;20503;-87
2023/04/26 01:59:40;;;;;;;4.45;2.28;;;;;;;;;;4859811;29;20057;-87
2023/04/26 02:02:06;;;;;;;6.07;2.80;;;;;;;;;;4829368;29;20059;-87
2023/04/26 02:04:32;;;;;;;3.88;2.33;;;;;;;;;;4844238;29;20492;-87
2023/04/26 02:06:58;;;;;;;9.63;2.63;;;;;;;;;;4829477;29;20534;-87
2023/04/26 02:09:25;;;;;;;3.47;2.33;;;;;;;;;;4844225;29;20053;-87
2023/04/26 02:11:51;;;;;;;6.72;2.30;;;;;;;;;;4844249;29;20499;-87
2023/04/26 02:14:17;;;;;;;3.95;2.08;;;;;;;;;;4844143;29;20046;-87
2023/04/26 02:16:43;;;;;;;3.83;2.38;;;;;;;;;;4844276;29;20108;-87
2023/04/26 02:19:09;;;;;;;5.40;2.15;;;;;;;;;;4859132;29;20057;-87
2023/04/26 02:36:34;;;;;;;7.15;2.50;;;;;;;;;;4858667;29;20140;-87
2023/04/26 02:39:00;;;;;;;7.78;2.83;;;;;;;;;;4843232;29;20053;-87
2023/04/26 02:41:26;;;;;;;2.30;1.85;;;;;;;;;;4843737;29;20052;-87
2023/04/26 02:43:52;;;;;;;7.40;2.22;;;;;;;;;;4828645;29;20050;-87
2023/04/26 02:46:18;;;;;;;5.55;3.22;;;;;;;;;;4828588;29;20054;-87
2023/04/26 02:48:45;;;;;;;5.65;1.95;;;;;;;;;;4828875;29;20061;-88
2023/04/26 02:51:11;;;;;;;5.10;2.72;;;;;;;;;;4837014;29;20088;-87
2023/04/26 02:53:37;;;;;;;4.68;2.25;;;;;;;;;;4834299;29;20049;-88
2023/04/26 02:56:03;;;;;;;5.18;2.03;;;;;;;;;;4843521;29;20053;-87
2023/04/26 02:58:29;;;;;;;5.80;2.10;;;;;;;;;;4843390;29;20050;-88
2023/04/26 03:00:57;;;;;;;14.32;2.10;;;;;;;;;;4858750;29;20041;-88
2023/04/26 03:03:23;;;;;;;5.15;1.70;;;;;;;;;;4858713;29;20095;-87
2023/04/26 03:05:49;;;;;;;4.90;2.00;;;;;;;;;;4828437;29;20049;-88
2023/04/26 03:08:15;;;;;;;5.93;1.90;;;;;;;;;;4843537;29;20106;-88
2023/04/26 03:10:41;;;;;;;8.38;2.50;;;;;;;;;;4843185;29;20046;-87
2023/04/26 03:13:07;;;;;;;4.88;2.05;;;;;;;;;;4843373;29;20045;-87
2023/04/26 03:15:33;;;;;;;6.30;1.90;;;;;;;;;;4858582;29;20533;-87
2023/04/26 03:17:59;;;;;;;2.83;1.77;;;;;;;;;;4843384;29;20579;-87
2023/04/26 03:20:25;;;;;;;6.07;2.20;;;;;;;;;;4828388;29;20136;-87
2023/04/26 03:22:52;;;;;;;5.55;2.38;;;;;;;;;;4828358;29;20049;-86
2023/04/26 03:25:18;;;;;;;11.57;2.20;;;;;;;;;;4843509;29;20041;-87
2023/04/26 03:27:44;;;;;;;6.30;2.30;;;;;;;;;;4843419;29;20054;-87
2023/04/26 03:30:12;;;;;;;3.05;2.03;;;;;;;;;;4843231;29;20483;-88
2023/04/26 03:32:38;;;;;;;2.78;1.83;;;;;;;;;;4843185;29;20041;-87
2023/04/26 03:35:04;;;;;;;4.53;2.05;;;;;;;;;;4843162;29;20136;-87
2023/04/26 03:37:30;;;;;;;3.25;1.90;;;;;;;;;;4843221;29;20471;-87
2023/04/26 03:39:56;;;;;;;3.92;2.00;;;;;;;;;;4827926;29;20060;-87
2023/04/26 03:42:22;;;;;;;3.70;2.10;;;;;;;;;;4843416;29;20109;-87
2023/04/26 03:44:48;;;;;;;4.85;2.15;;;;;;;;;;4842979;29;20098;-87
2023/04/26 03:47:14;;;;;;;4.82;1.90;;;;;;;;;;4843984;29;20049;-87
2023/04/26 03:49:41;;;;;;;2.95;1.98;;;;;;;;;;4847061;29;20045;-87
2023/04/26 03:52:07;;;;;;;6.57;2.38;;;;;;;;;;4846899;29;20073;-87
2023/04/26 03:54:34;;;;;;;5.38;3.03;;;;;;;;;;4831376;29;20049;-87
2023/04/26 03:57:00;;;;;;;5.05;2.65;;;;;;;;;;4861763;29;20186;-87
2023/04/26 03:59:27;;;;;;;4.50;2.03;;;;;;;;;;4831632;29;20053;-87
2023/04/26 04:01:53;;;;;;;8.07;2.63;;;;;;;;;;4846510;29;20094;-87
2023/04/26 04:04:19;;;;;;;9.18;2.03;;;;;;;;;;4831247;29;20057;-87
2023/04/26 04:06:45;;;;;;;5.05;1.85;;;;;;;;;;4831477;29;20160;-87
2023/04/26 04:09:11;;;;;;;5.43;2.17;;;;;;;;;;4846358;29;20163;-87
2023/04/26 04:11:37;;;;;;;2.78;1.65;;;;;;;;;;4831097;29;20065;-87
2023/04/26 04:14:04;;;;;;;3.08;2.17;;;;;;;;;;4831287;29;20145;-87
2023/04/26 04:16:30;;;;;;;5.72;1.63;;;;;;;;;;4861936;29;20384;-88
2023/04/26 04:18:56;;;;;;;4.95;1.88;;;;;;;;;;4831166;29;20046;-87
2023/04/26 04:21:22;;;;;;;5.65;1.95;;;;;;;;;;4846273;29;20132;-87
2023/04/26 04:23:49;;;;;;;3.20;2.30;;;;;;;;;;4830876;29;20109;-87
2023/04/26 04:26:16;;;;;;;6.50;2.22;;;;;;;;;;4831080;29;21267;-87
2023/04/26 04:28:43;;;;;;;9.27;1.98;;;;;;;;;;4846045;29;20507;-86
2023/04/26 04:31:10;;;;;;;3.65;2.20;;;;;;;;;;4830954;29;20049;-87
2023/04/26 04:33:36;;;;;;;3.63;2.45;;;;;;;;;;4830786;29;20046;-86
2023/04/26 04:36:02;;;;;;;5.32;2.20;;;;;;;;;;4846183;29;20511;-86
2023/04/26 04:38:28;;;;;;;5.18;2.30;;;;;;;;;;4830536;29;20037;-87
2023/04/26 04:40:54;;;;;;;2.92;2.28;;;;;;;;;;4846219;29;20045;-87
2023/04/26 04:43:22;;;;;;;6.05;2.58;;;;;;;;;;4845719;29;20053;-87
2023/04/26 04:45:48;;;;;;;2.50;2.28;;;;;;;;;;4846028;29;20551;-87
2023/04/26 04:48:14;;;;;;;4.60;2.50;;;;;;;;;;4845976;29;20060;-88
2023/04/26 04:50:41;;;;;;;4.18;2.03;;;;;;;;;;4830904;29;20037;-87
2023/04/26 04:53:11;;;;;;;9.73;2.97;;;;;;;;;;4861175;29;20390;-87
2023/04/26 04:55:37;;;;;;;5.40;1.90;;;;;;;;;;4846682;29;20053;-87
2023/04/26 04:58:03;;;;;;;3.17;1.90;;;;;;;;;;4850885;29;20057;-87
2023/04/26 05:00:30;;;;;;;3.70;2.33;;;;;;;;;;4850576;29;20064;-87
2023/04/26 05:02:56;;;;;;;7.15;2.30;;;;;;;;;;4849316;29;20491;-89
2023/04/26 05:05:22;;;;;;;5.22;1.80;;;;;;;;;;4833934;29;20045;-86
2023/04/26 05:07:48;;;;;;;4.75;2.20;;;;;;;;;;4848990;29;20052;-87
2023/04/26 05:10:15;;;;;;;4.82;2.95;;;;;;;;;;4848524;29;20044;-87
2023/04/26 05:12:41;;;;;;;5.10;2.47;;;;;;;;;;4833114;29;20045;-87
2023/04/26 05:15:08;;;;;;;4.43;2.28;;;;;;;;;;4833276;29;20496;-86
2023/04/26 05:17:34;;;;;;;5.25;2.28;;;;;;;;;;4833330;29;20045;-86
2023/04/26 05:20:05;;;;;;;5.88;2.22;;;;;;;;;;4848357;29;20053;-87
2023/04/26 05:22:31;;;;;;;2.33;1.73;;;;;;;;;;4848424;29;20049;-87
2023/04/26 05:24:57;;;;;;;9.02;2.15;;;;;;;;;;4863462;29;20064;-87
2023/04/26 05:27:23;;;;;;;11.02;2.33;;;;;;;;;;4848210;29;20140;-87
2023/04/26 05:29:49;;;;;;;4.10;2.28;;;;;;;;;;4833132;29;20072;-88
2023/04/26 05:32:15;;;;;;;2.88;2.20;;;;;;;;;;4847918;29;20060;-86
2023/04/26 05:34:41;;;;;;;4.78;1.88;;;;;;;;;;4847863;29;20052;-87
2023/04/26 05:37:07;;;;;;;7.60;2.33;;;;;;;;;;4848008;29;20053;-86
2023/04/26 05:39:33;;;;;;;4.43;2.33;;;;;;;;;;4863195;29;20141;-87
2023/04/26 05:42:00;;;;;;;9.63;2.33;;;;;;;;;;4863438;29;20053;-87
2023/04/26 05:44:26;;;;;;;3.95;2.20;;;;;;;;;;4832811;29;20049;-87
2023/04/26 05:46:52;;;;;;;1.77;1.67;;;;;;;;;;4863361;29;20100;-86
2023/04/26 05:49:18;;;;;;;2.45;2.10;;;;;;;;;;4848101;29;20045;-87
2023/04/26 05:51:44;;;;;;;1.73;1.52;;;;;;;;;;4833189;29;20052;-87
2023/04/26 05:54:10;;;;;;;2.53;2.33;;;;;;;;;;4847494;29;20080;-88
2023/04/26 05:56:36;;;;;;;8.82;2.53;;;;;;;;;;4847535;29;20045;-86
2023/04/26 05:59:02;;;;;;;2.67;1.50;;;;;;;;;;4847384;29;20553;-87
2023/04/26 06:01:28;;;;;;;4.38;1.80;;;;;;;;;;4832765;29;20407;-88
2023/04/26 06:03:54;;;;;;;5.15;1.60;;;;;;;;;;4832702;29;20048;-87
2023/04/26 06:06:20;;;;;;;3.42;2.13;;;;;;;;;;4847600;29;20487;-87
2023/04/26 06:08:46;;;;;;;4.50;1.75;;;;;;;;;;4847139;29;20064;-87
2023/04/26 06:11:12;;;;;;;7.53;3.88;;;;;;;;;;4831424;29;20045;-87
2023/04/26 06:13:39;;;;;;;4.15;2.42;;;;;;;;;;4832210;29;20060;-88
2023/04/26 06:16:05;;;;;;;3.25;2.35;;;;;;;;;;4832221;29;20053;-87
2023/04/26 06:18:31;;;;;;;7.35;2.45;;;;;;;;;;4847379;29;20482;-87
2023/04/26 06:20:57;;;;;;;9.20;2.22;;;;;;;;;;4847135;29;20492;-87
2023/04/26 06:23:23;;;;;;;4.78;2.38;;;;;;;;;;4847322;29;20120;-87
2023/04/26 06:25:49;;;;;;;3.70;2.03;;;;;;;;;;4832141;29;20509;-87
2023/04/26 06:28:15;;;;;;;6.65;2.40;;;;;;;;;;4847338;29;20455;-87
2023/04/26 06:30:44;;;;;;;3.58;2.10;;;;;;;;;;4833729;29;20784;-88
2023/04/26 06:33:22;;;;;;;3.38;2.03;;;;;;;;;;4851849;29;20574;-86
2023/04/26 06:36:07;;;;;;;8.40;2.60;;;;;;;;;;4837825;29;20049;-88
2023/04/26 06:38:33;;;;;;;9.48;2.65;;;;;;;;;;4838173;29;20144;-87
2023/04/26 06:44:14;;;;;;;5.13;2.03;;;;;;;;;;4864458;29;20059;-87
2023/04/26 06:46:40;;;;;;;7.72;2.10;;;;;;;;;;4837419;29;20474;-86
2023/04/26 06:49:14;;;;;;;4.43;2.40;;;;;;;;;;4858319;29;20497;-86
2023/04/26 06:51:40;;;;;;;4.53;2.15;;;;;;;;;;4839775;29;20045;-87
2023/04/26 06:54:32;;;;;;;15.65;5.97;;;;;;;;;;4855920;29;20052;-86
2023/04/26 07:03:24;;;;;;;4.30;2.15;;;;;;;;;;4425429;27;20049;-86
2023/04/26 07:05:50;;;;;;;3.08;1.92;;;;;;;;;;4820110;29;20570;-85
2023/04/26 07:08:18;;;;;;;5.88;2.28;;;;;;;;;;4820266;29;20049;-86
2023/04/26 07:10:44;;;;;;;4.10;2.28;;;;;;;;;;4851701;29;20419;-86
2023/04/26 07:13:10;;;;;;;2.20;2.00;;;;;;;;;;4835307;29;20108;-85
2023/04/26 07:15:37;;;;;;;7.60;2.40;;;;;;;;;;4836938;29;20144;-89
2023/04/26 07:18:03;;;;;;;2.42;1.80;;;;;;;;;;4839204;29;20045;-88
2023/04/26 07:20:29;;;;;;;9.45;3.05;;;;;;;;;;4868752;29;20411;-90
2023/04/26 07:22:55;;;;;;;4.63;1.95;;;;;;;;;;4837503;29;20067;-91
2023/04/26 07:25:21;;;;;;;6.00;2.30;;;;;;;;;;4867680;29;20045;-86
2023/04/26 07:27:50;;;;;;;7.10;2.03;;;;;;;;;;4854662;29;20092;-86
2023/04/26 07:30:16;;;;;;;8.10;1.95;;;;;;;;;;4855219;29;20835;-86
2023/04/26 07:32:42;;;;;;;4.53;2.38;;;;;;;;;;4852524;29;20084;-89
2023/04/26 07:35:14;;;;;;;7.20;2.25;;;;;;;;;;4852524;29;20506;-88
2023/04/26 07:37:41;;;;;;;6.60;2.10;;;;;;;;;;4870290;29;20108;-86
2023/04/26 07:40:27;;;;;;;;;;;;;;;;;;;;;
2023/04/26 07:50:59;;;;;;;;;;;;;;;;;;;;;
2023/04/26 08:06:37;;;;;;;3.88;2.15;;;;;;;;;;4816300;29;20062;-96
2023/04/26 08:30:00;;;;;;;16.10;2.88;;;;;;;;;;4836941;29;20034;-94
2023/04/26 08:32:29;;;;;;;9.82;2.72;;;;;;;;;;4814599;29;20114;-87
2023/04/26 10:50:11;;;;;;;5.60;1.45;;;;;;;;;;5895626;23;5246680;-84
2023/04/26 10:53:05;;;;;;;5.18;1.95;;;;;;;;;;6083436;23;20030;-86
2023/04/26 11:49:05;;;;;;;;;;;;;;;;;;;;;
2023/04/26 11:55:38;;;;;;;7.32;1.58;;;;;;;;;;6024808;23;20517;-87
2023/04/26 11:58:39;;;;;;;;;;;;;;;;;;;;;
2023/04/26 12:01:17;;;;;;;3.15;1.10;;;;;;;;;;5997815;23;20037;-87
2023/04/26 12:03:43;;;;;;;9.88;1.75;;;;;;;;;;5972295;23;20121;-87
2023/04/26 12:10:21;;;;;;;;;;;;;;;;;;;;;
2023/04/26 12:14:08;;;;;;;;;;;;;;;;;;;;;
2023/04/26 12:16:34;;;;;;;;;;;;;;;;;;;;;
2023/04/26 12:19:23;;;;;;;2.65;1.67;;;;;;;;;;5833554;24;20070;-88
2023/04/26 12:21:53;;;;;;;3.90;1.60;;;;;;;;;;5931391;23;20054;-88
2023/04/26 12:24:26;;;;;;;3.80;2.08;;;;;;;;;;5973399;23;20620;-85
2023/04/26 12:27:46;;;;;;;;;;;;;;;;;;;;;
2023/04/26 12:30:01;;;;;;;3.88;1.35;;;;;;;;;;6132279;23;20026;-85
2023/04/26 12:32:27;;;;;;;1.58;1.15;;;;;;;;;;6139300;23;20025;-85
2023/04/26 12:35:22;;;;;;;2.55;1.55;;;;;;;;;;6142327;23;20032;-92
2023/04/26 12:38:24;;;;;;;2.50;1.52;;;;;;;;;;6139397;23;20112;-91
2023/04/26 12:41:29;;;;;;;3.47;1.63;;;9.50;99.90;;;;;;6116051;23;20056;-90
2023/04/26 12:43:58;;;;;;;2.65;1.80;;;;;;;;;;6114977;23;20028;-85
2023/04/26 12:46:25;;;;;;;3.03;2.00;;;;;;;;;;6139077;23;20032;-89
2023/04/26 12:52:46;;;;;;;3.33;2.55;;;;;;;;;;6080916;23;20036;-86
2023/04/26 12:58:50;;;;;;;2.80;1.73;;;;;;;;;;5996263;23;20661;-93
2023/04/26 13:08:16;;;;;;;;;;;;;;;;;;;;;
2023/04/26 13:11:01;;;;;;;8.30;2.50;;;;;;;;;;6077321;23;20583;-89
2023/04/26 13:13:59;;;;;;;4.97;2.50;;;;;;;;;;6027036;23;20330;-94
2023/04/26 13:26:59;;;;;;;3.65;1.73;;;;;;;;;;6144913;23;20030;-86
2023/04/26 13:29:25;;;;;;;2.30;1.77;;;;;;;;;;6111362;23;20030;-86
2023/04/26 13:31:51;;;;;;;3.30;2.03;;;;;;;;;;6139946;23;20691;-92
2023/04/26 13:41:26;;;;;;;;;;;;;;;;;;;;;
2023/04/26 13:47:06;;;;;;;;;;;;;;;;;;;;;
2023/04/26 13:52:54;;;;;;;2.65;1.88;;;;;;;;;;6079557;23;20923;-86
2023/04/26 13:55:20;;;;;;;2.17;1.70;;;;;;;;;;6087084;23;20493;-86
2023/04/26 13:57:46;;;;;;;4.18;2.10;;;;;;;;;;6136750;23;20510;-86
2023/04/26 14:00:13;;;;;;;5.47;1.90;;;;;;;;;;6064792;23;20026;-85
2023/04/26 14:02:39;;;;;;;4.88;2.10;;;;;;;;;;6113857;23;20096;-86
2023/04/26 14:05:06;;;;;;;6.40;1.90;;;;;;;;;;6140210;23;20029;-92
2023/04/26 14:07:32;;;;;;;7.85;3.40;;;;;;;;;;6071445;23;20013;-91
2023/04/26 14:09:59;;;;;;;6.30;2.00;;;;;;;;;;6094986;23;20083;-94
2023/04/26 14:12:25;;;;;;;4.65;2.20;;;;;;;;;;6124188;23;20045;-91
2023/04/26 14:14:51;;;;;;;4.45;1.80;;;;;;;;;;6142000;23;20028;-90
2023/04/26 14:17:17;;;;;;;4.55;3.03;;;;;;;;;;6090289;23;20021;-91
2023/04/26 14:19:43;;;;;;;5.97;2.05;;;;;;;;;;6114266;23;20013;-90
2023/04/26 14:22:11;;;;;;;4.80;2.00;;;;;;;;;;6091149;23;20037;-87
2023/04/26 14:24:38;;;;;;;2.60;2.00;;;;;;;;;;6088895;23;20056;-92
2023/04/26 14:27:04;;;;;;;3.40;1.98;;;;;;;;;;6139186;23;20041;-94
2023/04/26 14:29:30;;;;;;;3.83;2.42;;;;;;;;;;6092153;23;20070;-94
2023/04/26 14:31:56;;;;;;;6.18;1.85;;;;;;;;;;6115894;23;20092;-88
2023/04/26 14:34:22;;;;;;;4.43;2.42;;;;;;;;;;6068041;23;20021;-93
2023/04/26 14:36:48;;;;;;;3.35;2.35;;;;;;;;;;6090668;23;20108;-91
2023/04/26 14:42:08;;;;;;;2.65;1.88;;;;;;;;;;6103283;23;20160;-90
2023/04/26 14:44:45;;;;;;;;;;;;;;;;;;6093182;23;20025;-90
2023/04/26 14:47:11;;;;;;;5.07;2.60;;;;;;;;;;6080823;23;19949;-89
2023/04/26 14:49:37;;;;;;;3.03;2.25;;;;;;;;;;6087962;23;20400;-93
2023/04/26 14:57:24;;;;;;;4.90;1.92;;;;;;;;;;6174188;23;20020;-94
2023/04/26 15:09:49;;;;;;;6.10;1.90;;;;;;;;;;6146963;23;20092;-88
2023/04/26 15:12:16;;;;;;;5.10;1.90;;;;;;;;;;6098782;23;20030;-86
2023/04/26 15:14:42;;;;;;;11.18;2.03;;;;;;;;;;6148385;23;20025;-87
2023/04/26 15:17:08;;;;;;;9.57;1.98;;;;;;;;;;6099212;23;20021;-85
2023/04/26 15:19:37;;;;;;;18.42;3.15;;;;;;;;;;6149595;23;20596;-87
2023/04/26 15:22:03;;;;;;;3.70;2.47;;;;;;;;;;6120003;23;20085;-85
2023/04/26 15:24:29;;;;;;;3.97;1.83;;;;;;;;;;6144455;23;20029;-86
2023/04/26 15:26:55;;;;;;;4.32;2.35;;;;;;;;;;6144785;23;20030;-85
2023/04/26 15:29:22;;;;;;;9.18;2.35;;;;;;;;;;6146206;23;20482;-86
2023/04/26 15:31:48;;;;;;;5.40;2.85;;;;;;;;;;6149628;23;20560;-88
2023/04/26 15:34:14;;;;;;;6.38;2.00;;;;;;;;;;6148991;23;20100;-88
2023/04/26 15:36:41;;;;;;;9.15;2.40;;;;;;;;;;6146138;23;20064;-86
2023/04/26 15:39:07;;;;;;;2.55;2.13;;;;;;;;;;6145280;23;20018;-89
2023/04/26 15:41:33;;;;;;;6.15;1.90;;;;;;;;;;6145617;23;20025;-89
2023/04/26 15:43:59;;;;;;;8.32;2.33;;;;;;;;;;6146567;23;20018;-89
2023/04/26 15:46:25;;;;;;;10.80;2.40;;;;;;;;;;6147135;23;20018;-87
2023/04/26 15:48:51;;;;;;;4.53;2.13;;;;;;;;;;6146144;23;20036;-89
2023/04/26 16:36:05;;;;;;;3.78;1.70;;;;;;;;;;6120465;23;20029;-91
2023/04/26 20:14:36;;;;;;;19.45;11.35;;;6.20;99.90;;;;;;6011620;23;20064;-96
2023/04/26 20:22:03;;;;;;;;;;;;;;;;;;;;;
2023/04/26 20:35:07;;;;;;;5.60;3.60;;;;;;;;;;5833353;24;20482;-90
2023/04/26 20:37:34;;;;;;;9.27;5.90;;;;;;;;;;5931211;24;20124;-92
2023/04/26 20:40:00;;;;;;;6.18;4.38;;;;;;;;;;6072568;23;20021;-91
2023/04/26 20:42:27;;;;;;;5.72;4.82;;;;;;;;;;6113211;23;20032;-92
2023/04/26 20:44:53;;;;;;;9.48;4.60;;;;;;;;;;6114067;23;20017;-89
2023/04/26 20:47:21;;;;;;;8.38;4.72;;;;;;;;;;6137420;23;20029;-92
2023/04/26 20:49:48;;;;;;;6.70;5.28;;;;;;;;;;6137986;23;20031;-89
2023/04/26 20:52:14;;;;;;;5.95;4.07;;;;;;;;;;6137383;23;20355;-90
2023/04/26 20:54:40;;;;;;;6.43;4.07;;;;;;;;;;6188016;23;20021;-92
2023/04/26 20:57:06;;;;;;;6.03;4.10;;;;;;;;;;6138888;23;20021;-91
2023/04/26 20:59:33;;;;;;;5.75;4.13;;;;;;;;;;6140812;23;20048;-90
2023/04/26 21:02:00;;;;;;;10.85;4.95;;;;;;;;;;6116854;23;20017;-95
2023/04/26 21:04:26;;;;;;;7.57;5.05;;;;;;;;;;6136775;23;20052;-91
2023/04/26 21:06:52;;;;;;;11.90;4.47;;;;;;;;;;6186377;23;20032;-89
2023/04/26 21:09:18;;;;;;;8.38;4.68;;;;;;;;;;6161130;23;20017;-91
2023/04/26 21:11:44;;;;;;;6.93;4.85;;;;;;;;;;6160513;23;20064;-93
2023/04/26 21:14:12;;;;;;;8.07;5.13;;;;;;;;;;6158485;23;20032;-90
2023/04/26 21:16:38;;;;;;;9.93;5.05;;;;;;;;;;6158223;23;20145;-91
2023/04/26 21:19:04;;;;;;;9.98;5.45;;;;;;;;;;6134649;23;20017;-90
2023/04/26 21:21:31;;;;;;;37.13;25.10;;;;;;;;;;6110666;23;20060;-90
2023/04/26 21:23:57;;;;;;;37.53;26.70;;;;;;;;;;6110490;23;20021;-92
2023/04/26 21:26:23;;;;;;;47.22;33.25;;;;;;;;;;6109893;23;20013;-90
2023/04/26 21:28:50;;;;;;;11.32;5.65;;;;;;;;;;6134530;23;20024;-91
2023/04/26 21:31:16;;;;;;;7.00;4.72;;;;;;;;;;6134108;23;20459;-91
2023/04/26 21:33:42;;;;;;;8.43;4.93;;;;;;;;;;6159106;23;20021;-91
2023/04/26 21:36:08;;;;;;;13.23;4.30;;;;;;;;;;6110421;23;20409;-91
2023/04/26 21:38:35;;;;;;;6.40;4.65;;;;;;;;;;6110048;23;20107;-91
2023/04/26 21:41:01;;;;;;;5.15;3.85;;;;;;;;;;6159048;23;20024;-90
2023/04/26 21:43:27;;;;;;;8.82;5.35;;;;;;;;;;6134771;23;20017;-92
2023/04/26 21:45:59;;;;;;;6.53;4.47;;;;;;;;;;6159293;23;20025;-90
2023/04/26 21:48:25;;;;;;;6.82;4.57;;;;;;;;;;6185403;23;20016;-90
2023/04/26 21:50:52;;;;;;;11.70;5.03;;;;;;;;;;6110546;23;20017;-89
2023/04/26 21:53:18;;;;;;;9.57;5.18;;;;;;;;;;6134428;23;20017;-90
2023/04/26 21:55:49;;;;;;;7.63;4.15;;;;;;;;;;6135081;23;20017;-91
2023/04/26 21:58:16;;;;;;;6.22;4.70;;;;;;;;;;6135006;23;20028;-90
2023/04/26 22:00:42;;;;;;;4.97;4.13;;;;;;;;;;6159520;23;20017;-91
2023/04/26 22:03:08;;;;;;;5.20;4.25;;;;;;;;;;6159851;23;20338;-92
2023/04/26 22:05:34;;;;;;;6.20;3.97;;;;;;;;;;6110840;23;20084;-91
2023/04/26 22:08:00;;;;;;;6.32;4.55;;;;;;;;;;6159426;23;20410;-92
2023/04/26 22:10:26;;;;;;;10.52;5.47;;;;;;;;;;6159834;23;20021;-92
2023/04/26 22:12:53;;;;;;;9.07;5.85;;;;;;;;;;6186143;23;20040;-91
2023/04/26 22:15:19;;;;;;;9.50;6.65;;;;;;;;;;6111294;23;20035;-91
2023/04/26 22:17:45;;;;;;;12.77;8.63;;;;;;;;;;6159522;23;20112;-92
2023/04/26 22:20:12;;;;;;;14.40;8.52;;;;;;;;;;6185326;23;20505;-91
2023/04/26 22:22:38;;;;;;;12.82;9.25;;;;;;;;;;6137558;23;20021;-89
2023/04/26 22:25:04;;;;;;;20.10;10.65;;;;;;;;;;6136973;23;20554;-90
2023/04/26 22:27:31;;;;;;;11.50;8.48;;;;;;;;;;6137136;23;20024;-88
2023/04/26 22:29:57;;;;;;;11.35;8.07;;;;;;;;;;6161278;23;20113;-89
2023/04/26 22:32:23;;;;;;;9.43;7.07;;;;;;;;;;6160979;23;20017;-90
2023/04/26 22:34:50;;;;;;;7.57;6.00;;;;;;;;;;6112241;23;20024;-89
2023/04/26 22:37:16;;;;;;;11.00;6.07;;;;;;;;;;6112091;23;20352;-90
2023/04/26 22:39:48;;;;;;;13.05;6.85;;;;;;;;;;6160302;23;20461;-91
2023/04/26 22:42:15;;;;;;;10.90;5.57;;;;;;;;;;6162077;23;20056;-92
2023/04/26 22:44:41;;;;;;;7.82;6.03;;;;;;;;;;6113017;23;20017;-89
2023/04/26 22:47:07;;;;;;;6.85;5.05;;;;;;;;;;6159508;23;20533;-89
2023/04/26 22:49:33;;;;;;;8.60;5.75;;;;;;;;;;6159349;23;20040;-89
2023/04/26 22:51:59;;;;;;;11.63;5.32;;;;;;;;;;6159095;23;20017;-90
2023/04/26 22:54:25;;;;;;;7.07;4.85;;;;;;;;;;6111169;23;20021;-91
2023/04/26 22:56:51;;;;;;;8.32;5.60;;;;;;;;;;6135391;23;20450;-89
2023/04/26 22:59:17;;;;;;;9.93;4.63;;;;;;;;;;6110487;23;20017;-89
2023/04/26 23:01:43;;;;;;;9.40;5.50;;;;;;;;;;6110359;23;20096;-89
2023/04/26 23:04:09;;;;;;;10.55;6.10;;;;;;;;;;6110001;23;20024;-89
2023/04/26 23:06:35;;;;;;;11.32;6.82;;;;;;;;;;6110320;23;20028;-89
2023/04/26 23:09:01;;;;;;;7.25;5.97;;;;;;;;;;6134300;23;20017;-91
2023/04/26 23:11:27;;;;;;;6.85;5.53;;;;;;;;;;6110920;23;20387;-92
2023/04/26 23:13:53;;;;;;;7.18;5.95;;;;;;;;;;6110734;23;20021;-91
2023/04/26 23:16:22;;;;;;;7.72;5.80;;;;;;;;;;6135147;23;20017;-91
2023/04/26 23:18:49;;;;;;;11.48;5.97;;;;;;;;;;6135292;23;20075;-89
2023/04/26 23:21:15;;;;;;;10.18;6.05;;;;;;;;;;6134944;23;20017;-93
2023/04/26 23:23:41;;;;;;;8.10;5.80;;;;;;;;;;6110523;23;20013;-92
2023/04/26 23:26:07;;;;;;;8.75;6.13;;;;;;;;;;6134760;23;20021;-90
2023/04/26 23:28:33;;;;;;;9.10;5.57;;;;;;;;;;6135036;23;20028;-91
2023/04/26 23:30:59;;;;;;;9.85;5.72;;;;;;;;;;6134811;23;20024;-89
2023/04/26 23:33:26;;;;;;;9.10;6.63;;;;;;;;;;6159296;23;20028;-89
2023/04/26 23:35:55;;;;;;;8.98;5.78;;;;;;;;;;6110422;23;20017;-90
2023/04/26 23:38:21;;;;;;;7.60;5.68;;;;;;;;;;6134764;23;20025;-89
2023/04/26 23:40:47;;;;;;;8.45;5.95;;;;;;;;;;6159046;23;20013;-92
2023/04/26 23:43:14;;;;;;;8.00;6.32;;;;;;;;;;6135097;23;20466;-92
2023/04/26 23:45:46;;;;;;;6.45;5.00;;;;;;;;;;6110631;23;20110;-93
2023/04/26 23:48:15;;;;;;;13.63;6.70;;;;;;;;;;6111876;23;20036;-95
2023/04/26 23:50:41;;;;;;;12.95;6.05;;;;;;;;;;6110762;23;20024;-93
2023/04/26 23:53:08;;;;;;;10.60;6.40;;;;;;;;;;6134511;23;20346;-89
2023/04/26 23:55:34;;;;;;;14.40;6.05;;;;;;;;;;6134769;23;20048;-89
2023/04/26 23:58:00;;;;;;;9.65;6.05;;;;;;;;;;6134735;23;20028;-91
